ひたすらRJTT-RJGG

LUXURY FLIGHT

03-6423-7371

羽田本店:東京都大田区羽田5-11-1
営業時間:10:00~20:00
定休日:毎週 月曜日
セントレア店:愛知県常滑市セントレア1-1
営業時間:10:00~20:00 年中無休

lv

ひたすらRJTT-RJGG

STAFF BLOG

2019/05/19 ひたすらRJTT-RJGG

おはようございます

 

本日のセントレアは、少々曇り空!!

 

日課とりました本日現在のMETARは

RJGG 182330Z 11018KT 9999 FEW020 SCT060 22/14 Q1020 NOSIG

現在はUSING RWY18です!

 FEW020 SCT060か・・・なるほどっすね〜〜

 

 

さて、今回の記事は、そのセントレアへ向けて羽田から毎回のフライトを行うY様です。

 

毎回とはほぼ週一です。

 

従いまして、かなり詳細なるフライトを実施しております!!

 

ご本人は、せっかく教わっても忘れちゃうよとは言っておりますが、

 

そんなことはありません

 

確実に前進しております!!

 

かなりのガチフライトですから、少々忘れて当たり前でしょう

 

Yさまから来るご質問もかなり奥深いですからね!!

 

「CCRってなんですの??」

 

「それは、Common Computing Resourceでして、ディスプレイがオールフェイルした時にですね・・・・・」

 

「現状RNAV1を飛行していて、RNPが・・・・」

 

「現在ANPは0.01なので・・・・」

 

みたいな、深い会話

 

だからこそ、やめられない!!

 

なぜなら理解が深まれば、できるようになる。

 

できるようになっているとは上手くなっている。

 

上手くなれば、そして理解ができれば面白い!!

 

更には、上達する過程が面白い!!

 

極論です

 

img_2926

これは、RJTT RWY34RをTAKEOFFの図

 

まずはENG STARTまでで1時間くらいかけてしてからのTAKEOFFですから、

 

やりがいがあるってもんです!!

 

 

Yさん!!

 

これから、もっともっと深い領域に突入しますので

 

楽しみにしてください!!

 

787のシステム・・・・

 

半端ないですから笑

 

引き続き 宜しくお願いします。

 

いつも本当にありがとうございます。

 

「感謝」

 

 

 

 

 

 

 

TOP